createdAt,value
2023-04-17T00:00:24.094Z,91.37
2023-04-17T00:01:24.085Z,91.06
2023-04-17T00:02:24.268Z,91.16
2023-04-17T00:03:24.124Z,91.16
2023-04-17T00:04:24.233Z,91.02
2023-04-17T00:05:24.150Z,91.16
2023-04-17T00:06:24.058Z,91.20
2023-04-17T00:07:24.006Z,91.06
2023-04-17T00:08:23.980Z,91.16
2023-04-17T00:09:23.967Z,90.96
2023-04-17T00:10:23.985Z,91.06
2023-04-17T00:11:23.968Z,90.75
2023-04-17T00:12:23.959Z,91.06
2023-04-17T00:13:23.921Z,91.06
2023-04-17T00:14:23.946Z,91.06
2023-04-17T00:15:23.915Z,91.16
2023-04-17T00:16:23.940Z,91.11
2023-04-17T00:17:23.906Z,91.06
2023-04-17T00:18:23.870Z,91.47
2023-04-17T00:19:23.890Z,91.31
2023-04-17T00:20:23.853Z,91.06
2023-04-17T00:21:23.834Z,91.11
2023-04-17T00:22:23.847Z,90.96
2023-04-17T00:23:23.834Z,90.75
2023-04-17T00:24:23.841Z,91.11
2023-04-17T00:25:23.788Z,91.47
2023-04-17T00:26:23.811Z,91.31
2023-04-17T00:27:23.780Z,91.11
2023-04-17T00:28:23.753Z,90.75
2023-04-17T00:29:23.801Z,91.20
2023-04-17T00:30:23.733Z,91.06
2023-04-17T00:31:23.793Z,91.47
2023-04-17T00:32:23.748Z,91.37
2023-04-17T00:33:23.728Z,91.47
2023-04-17T00:34:23.704Z,91.06
2023-04-17T00:35:23.686Z,90.90
2023-04-17T00:36:23.680Z,91.06
2023-04-17T00:37:23.656Z,91.11
2023-04-17T00:38:23.684Z,91.06
2023-04-17T00:39:23.664Z,91.47
2023-04-17T00:40:23.625Z,90.96
2023-04-17T00:41:23.618Z,91.47
2023-04-17T00:42:23.614Z,91.47
2023-04-17T00:43:23.598Z,91.16
2023-04-17T00:44:23.594Z,90.75
2023-04-17T00:45:23.574Z,91.31
2023-04-17T00:46:23.572Z,91.31
2023-04-17T00:47:23.564Z,91.20
2023-04-17T00:48:23.578Z,91.41
2023-04-17T00:49:23.528Z,91.37
2023-04-17T00:50:23.522Z,90.96
2023-04-17T00:51:23.513Z,91.16
2023-04-17T00:52:23.506Z,91.06
2023-04-17T00:53:23.488Z,91.31
2023-04-17T00:54:23.495Z,91.06
2023-04-17T00:55:23.446Z,91.27
2023-04-17T00:56:23.454Z,91.37
2023-04-17T00:57:23.441Z,91.11
2023-04-17T00:58:23.456Z,91.31
2023-04-17T00:59:23.424Z,91.31
2023-04-17T01:00:23.419Z,91.11
2023-04-17T01:01:23.457Z,91.00
2023-04-17T01:02:23.472Z,91.06
2023-04-17T01:03:23.507Z,91.06
2023-04-17T01:04:23.454Z,91.31
2023-04-17T01:05:23.344Z,91.11
2023-04-17T01:06:23.330Z,91.11
2023-04-17T01:07:23.355Z,91.41
2023-04-17T01:08:23.314Z,91.31
2023-04-17T01:09:23.305Z,91.31
2023-04-17T01:10:23.300Z,91.11
2023-04-17T01:11:23.278Z,91.16
2023-04-17T01:12:23.272Z,91.00
2023-04-17T01:13:23.240Z,91.11
2023-04-17T01:14:23.248Z,91.11
2023-04-17T01:15:23.229Z,91.16
2023-04-17T01:16:23.304Z,91.06
2023-04-17T01:17:23.266Z,91.11
2023-04-17T01:18:23.190Z,91.31
2023-04-17T01:19:23.223Z,91.31
2023-04-17T01:20:23.180Z,91.11
2023-04-17T01:21:23.166Z,91.20
2023-04-17T01:22:23.153Z,91.11
2023-04-17T01:23:23.156Z,91.41
2023-04-17T01:24:23.130Z,91.20
2023-04-17T01:25:23.107Z,91.11
2023-04-17T01:26:23.119Z,91.20
2023-04-17T01:27:23.080Z,91.20
2023-04-17T01:28:23.104Z,91.11
2023-04-17T01:29:23.061Z,91.11
2023-04-17T01:30:23.078Z,91.11
2023-04-17T01:31:23.222Z,91.31
2023-04-17T01:32:23.060Z,91.41
2023-04-17T01:33:23.037Z,91.00
2023-04-17T01:34:23.033Z,91.11
2023-04-17T01:35:23.020Z,91.11
2023-04-17T01:36:22.995Z,91.11
2023-04-17T01:37:22.977Z,91.20
2023-04-17T01:38:22.965Z,91.52
2023-04-17T01:39:22.959Z,91.20
2023-04-17T01:40:22.941Z,91.52
2023-04-17T01:41:22.942Z,91.20
2023-04-17T01:42:22.948Z,91.20
2023-04-17T01:43:22.914Z,91.52
2023-04-17T01:44:22.908Z,91.20
2023-04-17T01:45:22.887Z,91.61
2023-04-17T01:46:22.915Z,91.41
2023-04-17T01:47:22.904Z,91.52
2023-04-17T01:48:22.849Z,91.52
2023-04-17T01:49:22.873Z,91.20
2023-04-17T01:50:22.829Z,91.52
2023-04-17T01:51:22.812Z,91.61
2023-04-17T01:52:22.818Z,91.61
2023-04-17T01:53:22.802Z,91.52
2023-04-17T01:54:22.795Z,91.72
2023-04-17T01:55:22.774Z,91.31
2023-04-17T01:56:22.757Z,92.13
2023-04-17T01:57:22.750Z,91.92
2023-04-17T01:58:22.783Z,92.23
2023-04-17T01:59:22.796Z,92.23
2023-04-17T02:00:22.726Z,92.08
2023-04-17T02:01:22.728Z,92.23
2023-04-17T02:02:22.856Z,92.33
2023-04-17T02:03:22.795Z,92.02
2023-04-17T02:04:22.810Z,92.02
2023-04-17T02:05:22.669Z,92.13
2023-04-17T02:06:22.658Z,91.11
2023-04-17T02:07:22.628Z,92.13
2023-04-17T02:08:22.638Z,91.92
2023-04-17T02:09:22.685Z,92.23
2023-04-17T02:10:22.608Z,92.02
2023-04-17T02:11:22.586Z,92.33
2023-04-17T02:12:22.589Z,92.02
2023-04-17T02:13:22.572Z,92.13
2023-04-17T02:14:22.607Z,92.19
2023-04-17T02:15:22.560Z,92.23
2023-04-17T02:16:22.567Z,92.23
2023-04-17T02:17:22.566Z,92.13
2023-04-17T02:18:22.533Z,91.92
2023-04-17T02:19:22.518Z,92.23
2023-04-17T02:20:22.501Z,92.23
2023-04-17T02:21:22.467Z,92.02
2023-04-17T02:22:22.471Z,92.02
2023-04-17T02:23:22.456Z,92.13
2023-04-17T02:24:22.463Z,91.92
2023-04-17T02:25:22.443Z,92.23
2023-04-17T02:26:22.420Z,92.23
2023-04-17T02:27:22.410Z,91.41
2023-04-17T02:28:22.424Z,91.52
2023-04-17T02:29:22.414Z,91.52
2023-04-17T02:30:22.402Z,91.92
2023-04-17T02:31:22.439Z,91.31
2023-04-17T02:32:22.389Z,91.52
2023-04-17T02:33:22.373Z,92.17
2023-04-17T02:34:22.358Z,91.31
2023-04-17T02:35:22.327Z,91.82
2023-04-17T02:36:22.302Z,91.61
2023-04-17T02:37:22.290Z,92.13
2023-04-17T02:38:22.293Z,91.52
2023-04-17T02:39:22.294Z,91.41
2023-04-17T02:40:22.255Z,91.52
2023-04-17T02:41:22.264Z,91.72
2023-04-17T02:42:22.244Z,91.82
2023-04-17T02:43:22.215Z,92.33
2023-04-17T02:44:22.253Z,92.02
2023-04-17T02:45:22.210Z,92.13
2023-04-17T02:46:22.235Z,91.92
2023-04-17T02:47:22.237Z,92.07
2023-04-17T02:48:22.166Z,92.27
2023-04-17T02:49:22.190Z,92.02
2023-04-17T02:50:22.162Z,92.13
2023-04-17T02:51:22.165Z,91.92
2023-04-17T02:52:22.133Z,91.82
2023-04-17T02:53:22.117Z,91.82
2023-04-17T02:54:22.108Z,91.52
2023-04-17T02:55:22.099Z,91.82
2023-04-17T02:56:22.086Z,92.43
2023-04-17T02:57:22.106Z,91.72
2023-04-17T02:58:22.074Z,91.76
2023-04-17T02:59:22.058Z,91.86
2023-04-17T03:00:22.047Z,91.96
2023-04-17T03:01:22.155Z,92.02
2023-04-17T03:02:22.358Z,91.82
2023-04-17T03:03:22.169Z,92.23
2023-04-17T03:04:22.079Z,91.86
2023-04-17T03:05:21.996Z,92.02
2023-04-17T03:06:21.974Z,92.17
2023-04-17T03:07:21.956Z,91.86
2023-04-17T03:08:21.944Z,92.33
2023-04-17T03:09:21.954Z,92.43
2023-04-17T03:10:21.928Z,92.33
2023-04-17T03:11:21.923Z,91.76
2023-04-17T03:12:21.893Z,92.17
2023-04-17T03:13:21.899Z,91.92
2023-04-17T03:14:21.905Z,92.13
2023-04-17T03:15:21.880Z,91.86
2023-04-17T03:16:21.947Z,92.27
2023-04-17T03:17:21.917Z,92.47
2023-04-17T03:18:21.863Z,92.23
2023-04-17T03:19:21.860Z,92.23
2023-04-17T03:20:21.828Z,92.07
2023-04-17T03:21:21.798Z,92.37
2023-04-17T03:22:21.797Z,92.07
2023-04-17T03:23:21.797Z,92.02
2023-04-17T03:24:21.784Z,92.13
2023-04-17T03:25:21.770Z,91.82
2023-04-17T03:26:21.748Z,91.86
2023-04-17T03:27:21.734Z,92.27
2023-04-17T03:28:21.724Z,91.86
2023-04-17T03:29:21.725Z,91.72
2023-04-17T03:30:21.703Z,92.27
2023-04-17T03:31:24.208Z,92.27
2023-04-17T03:32:21.711Z,92.17
2023-04-17T03:33:21.682Z,91.92
2023-04-17T03:34:21.716Z,92.37
2023-04-17T03:35:21.656Z,92.37
2023-04-17T03:36:21.630Z,91.86
2023-04-17T03:37:21.614Z,92.37
2023-04-17T03:38:21.605Z,92.47
2023-04-17T03:39:21.629Z,92.13
2023-04-17T03:40:21.602Z,92.43
2023-04-17T03:41:21.572Z,92.27
2023-04-17T03:42:21.557Z,91.82
2023-04-17T03:43:21.574Z,92.27
2023-04-17T03:44:21.568Z,92.23
2023-04-17T03:45:21.540Z,91.82
2023-04-17T03:46:21.542Z,92.27
2023-04-17T03:47:21.535Z,91.92
2023-04-17T03:48:21.490Z,92.13
2023-04-17T03:49:21.558Z,91.82
2023-04-17T03:50:21.486Z,91.76
2023-04-17T03:51:21.463Z,92.07
2023-04-17T03:52:21.444Z,92.17
2023-04-17T03:53:21.441Z,91.72
2023-04-17T03:54:21.432Z,92.27
2023-04-17T03:55:21.409Z,91.56
2023-04-17T03:56:21.394Z,92.17
2023-04-17T03:57:21.398Z,91.66
2023-04-17T03:58:21.380Z,92.17
2023-04-17T03:59:21.408Z,92.17
2023-04-17T04:00:21.365Z,91.96
2023-04-17T04:01:21.353Z,91.86
2023-04-17T04:02:21.415Z,92.27
2023-04-17T04:03:21.455Z,91.82
2023-04-17T04:04:21.449Z,91.96
2023-04-17T04:05:21.413Z,92.07
2023-04-17T04:06:21.297Z,91.86
2023-04-17T04:07:21.281Z,92.23
2023-04-17T04:08:21.265Z,92.37
2023-04-17T04:09:21.244Z,92.27
2023-04-17T04:10:21.262Z,91.86
2023-04-17T04:11:21.223Z,91.86
2023-04-17T04:12:21.222Z,92.07
2023-04-17T04:13:21.208Z,92.27
2023-04-17T04:14:21.226Z,91.96
2023-04-17T04:15:21.176Z,92.17
2023-04-17T04:16:21.259Z,92.02
2023-04-17T04:17:21.242Z,91.66
2023-04-17T04:18:21.162Z,92.27
2023-04-17T04:19:21.155Z,92.07
2023-04-17T04:20:21.125Z,92.07
2023-04-17T04:21:21.123Z,91.86
2023-04-17T04:22:21.151Z,92.17
2023-04-17T04:23:21.131Z,91.96
2023-04-17T04:24:21.141Z,91.86
2023-04-17T04:25:21.073Z,91.96
2023-04-17T04:26:21.058Z,91.86
2023-04-17T04:27:21.044Z,91.96
2023-04-17T04:28:21.020Z,92.27
2023-04-17T04:29:21.075Z,92.17
2023-04-17T04:30:21.028Z,92.17
2023-04-17T04:31:21.082Z,92.17
2023-04-17T04:32:20.986Z,92.37
2023-04-17T04:33:21.066Z,92.27
2023-04-17T04:34:20.992Z,92.07
2023-04-17T04:35:20.953Z,92.27
2023-04-17T04:36:21.073Z,92.07
2023-04-17T04:37:20.947Z,92.47
2023-04-17T04:38:20.933Z,92.07
2023-04-17T04:39:20.968Z,92.27
2023-04-17T04:40:20.890Z,92.27
2023-04-17T04:41:20.906Z,92.37
2023-04-17T04:42:20.869Z,92.27
2023-04-17T04:43:22.464Z,92.17
2023-04-17T04:44:20.875Z,91.96
2023-04-17T04:45:20.853Z,92.07
2023-04-17T04:46:20.893Z,92.17
2023-04-17T04:47:20.888Z,92.07
2023-04-17T04:48:20.814Z,92.27
2023-04-17T04:49:20.804Z,91.76
2023-04-17T04:50:20.834Z,91.29
2023-04-17T04:51:20.771Z,91.56
2023-04-17T04:52:20.766Z,91.56
2023-04-17T04:53:20.755Z,91.50
2023-04-17T04:54:20.789Z,91.15
2023-04-17T04:55:20.736Z,91.35
2023-04-17T04:56:20.721Z,91.56
2023-04-17T04:57:20.713Z,91.09
2023-04-17T04:58:20.688Z,90.88
2023-04-17T04:59:20.744Z,91.60
2023-04-17T05:00:20.689Z,91.19
2023-04-17T05:01:20.772Z,91.09
2023-04-17T05:02:20.766Z,91.39
2023-04-17T05:03:20.953Z,91.35
2023-04-17T05:04:20.767Z,90.84
2023-04-17T05:05:20.652Z,91.35
2023-04-17T05:06:20.616Z,91.19
2023-04-17T05:07:20.605Z,91.29
2023-04-17T05:08:20.608Z,91.29
2023-04-17T05:09:20.610Z,91.29
2023-04-17T05:10:20.596Z,91.29
2023-04-17T05:11:20.565Z,91.19
2023-04-17T05:12:20.540Z,91.25
2023-04-17T05:13:20.527Z,90.78
2023-04-17T05:14:20.544Z,90.37
2023-04-17T05:15:20.499Z,91.03
2023-04-17T05:16:20.552Z,90.99
2023-04-17T05:17:20.536Z,90.78
2023-04-17T05:18:20.479Z,90.78
2023-04-17T05:19:20.495Z,90.17
2023-04-17T05:20:20.462Z,89.97
2023-04-17T05:21:20.451Z,90.58
2023-04-17T05:22:20.416Z,90.37
2023-04-17T05:23:20.432Z,90.62
2023-04-17T05:24:20.432Z,90.68
2023-04-17T05:25:20.384Z,90.82
2023-04-17T05:26:20.391Z,90.62
2023-04-17T05:27:20.362Z,90.62
2023-04-17T05:28:20.373Z,90.68
2023-04-17T05:29:20.377Z,90.58
2023-04-17T05:30:20.353Z,90.21
2023-04-17T05:31:20.334Z,90.52
2023-04-17T05:32:20.319Z,90.58
2023-04-17T05:33:20.297Z,90.41
2023-04-17T05:34:20.309Z,89.65
2023-04-17T05:35:20.278Z,90.78
2023-04-17T05:36:20.280Z,90.92
2023-04-17T05:37:20.252Z,90.21
2023-04-17T05:38:20.251Z,90.37
2023-04-17T05:39:20.258Z,90.72
2023-04-17T05:40:20.244Z,90.52
2023-04-17T05:41:20.204Z,90.27
2023-04-17T05:42:20.205Z,90.00
2023-04-17T05:43:20.197Z,90.21
2023-04-17T05:44:20.182Z,90.41
2023-04-17T05:45:20.156Z,90.47
2023-04-17T05:46:20.235Z,90.06
2023-04-17T05:47:20.167Z,90.27
2023-04-17T05:48:20.136Z,89.97
2023-04-17T05:49:20.149Z,89.86
2023-04-17T05:50:20.115Z,89.90
2023-04-17T05:51:20.092Z,89.97
2023-04-17T05:52:20.099Z,90.00
2023-04-17T05:53:20.078Z,89.97
2023-04-17T05:54:20.077Z,89.97
2023-04-17T05:55:20.090Z,89.97
2023-04-17T05:56:20.041Z,89.56
2023-04-17T05:57:20.849Z,89.50
2023-04-17T05:58:23.846Z,89.18
2023-04-17T05:59:20.022Z,89.25
2023-04-17T06:00:20.014Z,89.15
2023-04-17T06:01:19.989Z,89.70
2023-04-17T06:02:20.059Z,89.70
2023-04-17T06:03:20.389Z,89.76
2023-04-17T06:04:20.345Z,90.17
2023-04-17T06:05:20.042Z,89.65
2023-04-17T06:06:19.912Z,89.80
2023-04-17T06:07:19.921Z,89.76
2023-04-17T06:08:19.908Z,89.35
2023-04-17T06:09:19.918Z,89.56
2023-04-17T06:10:19.866Z,89.70
2023-04-17T06:11:19.864Z,90.37
2023-04-17T06:12:19.854Z,89.45
2023-04-17T06:13:19.855Z,90.47
2023-04-17T06:14:19.858Z,90.41
2023-04-17T06:15:19.831Z,89.56
2023-04-17T06:16:19.826Z,89.65
2023-04-17T06:17:19.819Z,89.70
2023-04-17T06:18:19.792Z,89.25
2023-04-17T06:19:19.780Z,89.25
2023-04-17T06:20:19.758Z,89.76
2023-04-17T06:21:19.783Z,89.35
2023-04-17T06:22:19.742Z,89.56
2023-04-17T06:23:19.779Z,88.53
2023-04-17T06:24:19.731Z,89.35
2023-04-17T06:25:19.706Z,89.15
2023-04-17T06:26:19.687Z,88.94
2023-04-17T06:27:19.679Z,88.64
2023-04-17T06:28:19.666Z,88.94
2023-04-17T06:29:19.677Z,88.79
2023-04-17T06:30:19.680Z,88.74
2023-04-17T06:31:19.682Z,88.84
2023-04-17T06:32:19.688Z,88.33
2023-04-17T06:33:19.620Z,88.23
2023-04-17T06:34:19.622Z,88.23
2023-04-17T06:35:19.584Z,88.12
2023-04-17T06:36:19.589Z,88.23
2023-04-17T06:37:19.573Z,87.98
2023-04-17T06:38:19.563Z,88.59
2023-04-17T06:39:19.570Z,88.39
2023-04-17T06:40:19.543Z,88.59
2023-04-17T06:41:19.536Z,87.88
2023-04-17T06:42:19.503Z,87.71
2023-04-17T06:43:19.507Z,88.39
2023-04-17T06:44:19.494Z,88.18
2023-04-17T06:45:19.488Z,88.29
2023-04-17T06:46:19.530Z,88.39
2023-04-17T06:47:19.477Z,87.98
2023-04-17T06:48:19.449Z,87.26
2023-04-17T06:49:19.460Z,87.06
2023-04-17T06:50:20.377Z,87.57
2023-04-17T06:51:19.419Z,87.67
2023-04-17T06:52:19.389Z,87.37
2023-04-17T06:53:19.396Z,87.57
2023-04-17T06:54:19.594Z,86.85
2023-04-17T06:55:19.368Z,87.16
2023-04-17T06:56:19.345Z,87.32
2023-04-17T06:57:19.348Z,86.51
2023-04-17T06:58:19.331Z,87.02
2023-04-17T06:59:19.339Z,86.51
2023-04-17T07:00:19.313Z,86.61
2023-04-17T07:01:19.328Z,86.61
2023-04-17T07:02:19.531Z,86.71
2023-04-17T07:03:19.539Z,86.30
2023-04-17T07:04:19.340Z,86.51
2023-04-17T07:05:19.290Z,86.82
2023-04-17T07:06:19.231Z,86.16
2023-04-17T07:07:19.247Z,86.36
2023-04-17T07:08:19.226Z,86.57
2023-04-17T07:09:19.252Z,86.67
2023-04-17T07:10:19.198Z,86.67
2023-04-17T07:11:19.191Z,85.65
2023-04-17T07:12:19.164Z,85.21
2023-04-17T07:13:19.146Z,85.71
2023-04-17T07:14:19.155Z,85.51
2023-04-17T07:15:19.195Z,85.41
2023-04-17T07:16:19.154Z,85.71
2023-04-17T07:17:19.139Z,84.80
2023-04-17T07:18:19.129Z,84.90
2023-04-17T07:19:19.149Z,84.80
2023-04-17T07:20:19.074Z,84.80
2023-04-17T07:21:19.080Z,84.90
2023-04-17T07:22:19.046Z,84.90
2023-04-17T07:23:19.049Z,84.69
2023-04-17T07:24:19.085Z,84.59
2023-04-17T07:25:19.254Z,84.80
2023-04-17T07:26:19.025Z,84.80
2023-04-17T07:27:18.991Z,85.00
2023-04-17T07:28:18.977Z,84.80
2023-04-17T07:29:19.007Z,84.90
2023-04-17T07:30:18.982Z,84.45
2023-04-17T07:31:18.975Z,84.75
2023-04-17T07:32:18.939Z,84.66
2023-04-17T07:33:19.015Z,84.75
2023-04-17T07:34:18.961Z,83.67
2023-04-17T07:35:18.913Z,83.78
2023-04-17T07:36:18.891Z,84.08
2023-04-17T07:37:18.874Z,84.18
2023-04-17T07:38:18.909Z,84.34
2023-04-17T07:39:18.918Z,84.34
2023-04-17T07:40:18.846Z,84.80
2023-04-17T07:41:18.840Z,83.67
2023-04-17T07:42:18.829Z,83.84
2023-04-17T07:43:18.815Z,83.84
2023-04-17T07:44:18.848Z,83.73
2023-04-17T07:45:18.797Z,83.33
2023-04-17T07:46:18.834Z,83.23
2023-04-17T07:47:18.939Z,83.33
2023-04-17T07:48:18.781Z,83.43
2023-04-17T07:49:18.927Z,83.33
2023-04-17T07:50:18.766Z,83.23
2023-04-17T07:51:18.719Z,83.33
2023-04-17T07:52:18.768Z,83.33
2023-04-17T07:53:18.713Z,83.23
2023-04-17T07:54:18.717Z,83.33
2023-04-17T07:55:18.676Z,83.70
2023-04-17T07:56:18.668Z,83.53
2023-04-17T07:57:18.661Z,83.53
2023-04-17T07:58:18.649Z,83.23
2023-04-17T07:59:18.667Z,83.12
2023-04-17T08:00:18.628Z,83.33
2023-04-17T08:01:18.602Z,83.02
2023-04-17T08:02:20.025Z,83.33
2023-04-17T08:03:18.758Z,83.73
2023-04-17T08:04:18.767Z,83.33
2023-04-17T08:05:18.604Z,83.23
2023-04-17T08:06:18.570Z,83.73
2023-04-17T08:07:18.532Z,83.33
2023-04-17T08:08:18.526Z,83.33
2023-04-17T08:09:18.565Z,83.23
2023-04-17T08:10:18.508Z,83.12
2023-04-17T08:11:18.527Z,83.49
2023-04-17T08:12:18.502Z,83.18
2023-04-17T08:13:18.478Z,83.09
2023-04-17T08:14:18.476Z,83.53
2023-04-17T08:15:18.457Z,83.12
2023-04-17T08:16:18.437Z,82.88
2023-04-17T08:17:18.460Z,82.78
2023-04-17T08:18:18.438Z,82.78
2023-04-17T08:19:18.402Z,82.27
2023-04-17T08:20:18.424Z,82.57
2023-04-17T08:21:18.380Z,82.27
2023-04-17T08:22:18.408Z,82.57
2023-04-17T08:23:18.401Z,82.88
2023-04-17T08:24:19.925Z,82.78
2023-04-17T08:25:18.473Z,82.88
2023-04-17T08:26:18.321Z,82.57
2023-04-17T08:27:18.308Z,82.03
2023-04-17T08:28:18.311Z,82.03
2023-04-17T08:29:18.312Z,81.62
2023-04-17T08:30:19.262Z,81.68
2023-04-17T08:31:18.378Z,81.07
2023-04-17T08:32:18.284Z,81.48
2023-04-17T08:33:18.285Z,81.38
2023-04-17T08:34:18.257Z,80.56
2023-04-17T08:35:18.228Z,80.56
2023-04-17T08:36:18.223Z,80.36
2023-04-17T08:37:18.209Z,80.97
2023-04-17T08:38:18.356Z,80.36
2023-04-17T08:39:18.207Z,80.26
2023-04-17T08:40:18.211Z,79.64
2023-04-17T08:41:18.158Z,79.91
2023-04-17T08:42:19.192Z,80.11
2023-04-17T08:43:18.126Z,79.50
2023-04-17T08:44:18.140Z,79.81
2023-04-17T08:45:18.116Z,79.30
2023-04-17T08:46:18.159Z,78.59
2023-04-17T08:47:18.197Z,78.96
2023-04-17T08:48:18.085Z,77.87
2023-04-17T08:49:18.081Z,77.03
2023-04-17T08:50:18.106Z,77.47
2023-04-17T08:51:18.048Z,77.67
2023-04-17T08:52:18.042Z,77.47
2023-04-17T08:53:18.077Z,77.67
2023-04-17T08:54:18.105Z,77.78
2023-04-17T08:55:18.009Z,78.19
2023-04-17T08:56:17.995Z,77.57
2023-04-17T08:57:17.964Z,77.47
2023-04-17T08:58:17.970Z,77.37
2023-04-17T08:59:18.001Z,77.98
2023-04-17T09:00:17.942Z,77.78
2023-04-17T09:01:17.942Z,77.57
2023-04-17T09:02:18.257Z,77.06
2023-04-17T09:03:18.042Z,76.86
2023-04-17T09:04:18.168Z,77.57
2023-04-17T09:05:17.878Z,77.23
2023-04-17T09:06:17.879Z,76.96
2023-04-17T09:07:17.853Z,77.06
2023-04-17T09:08:17.866Z,76.01
2023-04-17T09:09:17.861Z,76.62
2023-04-17T09:10:17.854Z,76.92
2023-04-17T09:11:17.852Z,77.03
2023-04-17T09:12:17.811Z,76.31
2023-04-17T09:13:17.785Z,77.03
2023-04-17T09:14:17.798Z,76.92
2023-04-17T09:15:17.763Z,77.03
2023-04-17T09:16:17.799Z,76.79
2023-04-17T09:17:17.742Z,76.99
2023-04-17T09:18:17.745Z,75.57
2023-04-17T09:19:17.735Z,76.14
2023-04-17T09:20:17.720Z,74.99
2023-04-17T09:21:17.694Z,75.40
2023-04-17T09:22:17.686Z,74.95
2023-04-17T09:23:17.674Z,74.55
2023-04-17T09:24:17.684Z,73.33
2023-04-17T09:25:17.666Z,73.57
2023-04-17T09:26:17.667Z,72.89
2023-04-17T09:27:17.639Z,71.53
2023-04-17T09:28:17.632Z,69.41
2023-04-17T09:29:17.625Z,68.56
2023-04-17T09:30:17.597Z,68.36
2023-04-17T09:31:17.619Z,66.74
2023-04-17T09:32:17.633Z,66.91
2023-04-17T09:33:17.566Z,67.05
2023-04-17T09:34:17.590Z,66.50
2023-04-17T09:35:17.539Z,66.50
2023-04-17T09:36:17.541Z,66.30
2023-04-17T09:37:17.531Z,67.22
2023-04-17T09:38:17.520Z,66.71
2023-04-17T09:39:17.522Z,67.11
2023-04-17T09:40:17.500Z,66.50
2023-04-17T09:41:17.488Z,65.90
2023-04-17T09:42:17.529Z,66.58
2023-04-17T09:43:17.462Z,66.44
2023-04-17T09:44:17.461Z,65.73
2023-04-17T09:45:17.455Z,66.11
2023-04-17T09:46:17.437Z,65.64
2023-04-17T09:47:17.401Z,65.13
2023-04-17T09:48:17.395Z,65.06
2023-04-17T09:49:17.407Z,65.40
2023-04-17T09:50:17.379Z,65.17
2023-04-17T09:51:17.368Z,64.94
2023-04-17T09:52:17.378Z,65.01
2023-04-17T09:53:17.344Z,64.34
2023-04-17T09:54:17.323Z,64.61
2023-04-17T09:55:17.336Z,62.06
2023-04-17T09:56:17.302Z,62.04
2023-04-17T09:57:17.289Z,61.80
2023-04-17T09:58:17.327Z,61.37
2023-04-17T09:59:17.292Z,61.65
2023-04-17T10:00:17.254Z,61.94
2023-04-17T10:01:17.294Z,61.31
2023-04-17T10:02:17.326Z,60.61
2023-04-17T10:03:17.448Z,59.78
2023-04-17T10:04:17.765Z,58.94
2023-04-17T10:05:17.205Z,57.77
2023-04-17T10:06:17.196Z,57.37
2023-04-17T10:07:17.182Z,57.44
2023-04-17T10:08:17.174Z,57.44
2023-04-17T10:09:17.194Z,58.11
2023-04-17T10:10:17.164Z,57.41
2023-04-17T10:11:17.134Z,57.01
2023-04-17T10:12:17.118Z,56.78
2023-04-17T10:13:17.923Z,56.58
2023-04-17T10:14:17.145Z,55.68
2023-04-17T10:15:17.096Z,55.18
2023-04-17T10:16:17.153Z,55.47
2023-04-17T10:17:17.056Z,55.47
2023-04-17T10:18:17.054Z,55.75
2023-04-17T10:19:17.092Z,55.02
2023-04-17T10:20:17.119Z,55.32
2023-04-17T10:21:17.029Z,53.19
2023-04-17T10:22:17.002Z,52.29
2023-04-17T10:23:17.005Z,50.92
2023-04-17T10:24:17.017Z,52.17
2023-04-17T10:25:16.966Z,52.80
2023-04-17T10:26:16.976Z,53.55
2023-04-17T10:27:16.961Z,54.15
2023-04-17T10:28:16.937Z,54.00
2023-04-17T10:29:16.942Z,54.93
2023-04-17T10:30:17.148Z,55.13
2023-04-17T10:31:16.934Z,55.00
2023-04-17T10:32:17.034Z,55.31
2023-04-17T10:33:16.947Z,54.50
2023-04-17T10:34:16.887Z,55.26
2023-04-17T10:35:16.870Z,54.15
2023-04-17T10:36:16.869Z,54.02
2023-04-17T10:37:16.932Z,52.64
2023-04-17T10:38:16.942Z,52.57
2023-04-17T10:39:16.922Z,50.89
2023-04-17T10:40:16.812Z,52.22
2023-04-17T10:41:16.811Z,52.80
2023-04-17T10:42:16.786Z,50.18
2023-04-17T10:43:16.786Z,52.29
2023-04-17T10:44:16.764Z,52.59
2023-04-17T10:45:16.777Z,52.06
2023-04-17T10:46:16.871Z,51.68
2023-04-17T10:47:16.737Z,52.57
2023-04-17T10:48:16.792Z,52.47
2023-04-17T10:49:16.704Z,52.04
2023-04-17T10:50:16.697Z,50.53
2023-04-17T10:51:16.722Z,50.56
2023-04-17T10:52:16.692Z,52.26
2023-04-17T10:53:16.673Z,52.57
2023-04-17T10:54:16.669Z,52.26
2023-04-17T10:55:16.661Z,51.16
2023-04-17T10:56:16.624Z,51.68
2023-04-17T10:57:16.639Z,51.51
2023-04-17T10:58:16.603Z,52.62
2023-04-17T10:59:16.979Z,52.22
2023-04-17T11:00:16.594Z,53.92
2023-04-17T11:01:16.609Z,52.82
2023-04-17T11:02:16.632Z,52.59
2023-04-17T11:03:16.690Z,51.99
2023-04-17T11:04:16.596Z,52.57
2023-04-17T11:05:16.533Z,50.96
2023-04-17T11:06:16.518Z,53.25
2023-04-17T11:07:16.498Z,51.34
2023-04-17T11:08:16.511Z,52.64
2023-04-17T11:09:16.889Z,51.11
2023-04-17T11:10:16.474Z,51.59
2023-04-17T11:11:18.589Z,49.96
2023-04-17T11:12:17.457Z,50.59
2023-04-17T11:13:16.434Z,51.19
2023-04-17T11:14:16.500Z,51.59
2023-04-17T11:15:16.450Z,51.51
2023-04-17T11:16:16.438Z,50.33
2023-04-17T11:17:16.508Z,50.23
2023-04-17T11:18:16.417Z,51.36
2023-04-17T11:19:16.400Z,50.68
2023-04-17T11:20:16.364Z,52.01
2023-04-17T11:21:16.357Z,51.36
2023-04-17T11:22:16.332Z,53.00
2023-04-17T11:23:16.326Z,53.92
2023-04-17T11:24:16.323Z,54.13
2023-04-17T11:25:16.303Z,54.03
2023-04-17T11:26:16.298Z,55.24
2023-04-17T11:27:16.294Z,54.81
2023-04-17T11:28:16.279Z,53.67
2023-04-17T11:29:16.286Z,53.07
2023-04-17T11:30:16.253Z,53.95
2023-04-17T11:31:18.609Z,53.65
2023-04-17T11:32:16.236Z,52.62
2023-04-17T11:33:16.220Z,52.72
2023-04-17T11:34:16.265Z,50.48
2023-04-17T11:35:16.206Z,51.29
2023-04-17T11:36:16.171Z,50.08
2023-04-17T11:37:16.199Z,50.78
2023-04-17T11:38:16.157Z,51.86
2023-04-17T11:39:16.161Z,52.37
2023-04-17T11:40:16.128Z,51.97
2023-04-17T11:41:16.147Z,52.44
2023-04-17T11:42:16.128Z,52.32
2023-04-17T11:43:16.120Z,52.12
2023-04-17T11:44:16.097Z,52.09
2023-04-17T11:45:16.110Z,51.11
2023-04-17T11:46:16.198Z,51.34
2023-04-17T11:47:16.071Z,52.17
2023-04-17T11:48:16.052Z,51.89
2023-04-17T11:49:16.056Z,51.89
2023-04-17T11:50:16.047Z,52.19
2023-04-17T11:51:16.034Z,52.72
2023-04-17T11:52:17.931Z,53.83
2023-04-17T11:53:16.001Z,53.80
2023-04-17T11:54:15.983Z,53.30
2023-04-17T11:55:15.970Z,52.17
2023-04-17T11:56:16.035Z,52.67
2023-04-17T11:57:15.949Z,51.86
2023-04-17T11:58:15.926Z,51.74
2023-04-17T11:59:15.969Z,52.14
2023-04-17T12:00:15.932Z,51.64
2023-04-17T12:01:15.906Z,51.92
2023-04-17T12:02:16.002Z,51.79
2023-04-17T12:03:15.995Z,50.11
2023-04-17T12:04:16.333Z,50.48
2023-04-17T12:05:16.112Z,51.69
2023-04-17T12:06:15.881Z,50.56
2023-04-17T12:07:15.862Z,50.46
2023-04-17T12:08:15.815Z,49.63
2023-04-17T12:09:15.836Z,48.51
2023-04-17T12:10:15.829Z,47.41
2023-04-17T12:11:16.740Z,48.03
2023-04-17T12:12:15.795Z,48.13
2023-04-17T12:13:15.772Z,47.63
2023-04-17T12:14:15.754Z,48.16
2023-04-17T12:15:15.866Z,48.35
2023-04-17T12:16:15.783Z,48.66
2023-04-17T12:17:15.720Z,49.18
2023-04-17T12:18:15.770Z,49.66
2023-04-17T12:19:15.724Z,49.46
2023-04-17T12:20:15.682Z,48.55
2023-04-17T12:21:15.713Z,47.93
2023-04-17T12:22:15.691Z,48.21
2023-04-17T12:23:15.655Z,47.91
2023-04-17T12:24:15.660Z,46.81
2023-04-17T12:25:15.633Z,47.93
2023-04-17T12:26:15.637Z,48.01
2023-04-17T12:27:15.626Z,46.73
2023-04-17T12:28:15.595Z,48.23
2023-04-17T12:29:15.596Z,48.13
2023-04-17T12:30:15.601Z,48.53
2023-04-17T12:31:15.642Z,49.43
2023-04-17T12:32:15.555Z,48.21
2023-04-17T12:33:15.561Z,47.91
2023-04-17T12:34:15.589Z,47.81
2023-04-17T12:35:15.536Z,47.03
2023-04-17T12:36:15.558Z,46.75
2023-04-17T12:37:15.495Z,47.38
2023-04-17T12:38:15.514Z,48.30
2023-04-17T12:39:15.493Z,48.10
2023-04-17T12:40:15.456Z,47.97
2023-04-17T12:41:15.461Z,48.48
2023-04-17T12:42:15.431Z,48.68
2023-04-17T12:43:15.444Z,48.55
2023-04-17T12:44:15.428Z,47.25
2023-04-17T12:45:15.410Z,49.08
2023-04-17T12:46:15.421Z,48.78
2023-04-17T12:47:15.395Z,48.58
2023-04-17T12:48:15.384Z,48.18
2023-04-17T12:49:15.375Z,47.97
2023-04-17T12:50:15.362Z,48.78
2023-04-17T12:51:15.335Z,48.70
2023-04-17T12:52:15.320Z,49.01